sensor_id;sensor_type;location;lat;lon;timestamp;temperature;humidity
5697;DHT22;2873;50.966;7.210;2023-10-31T00:00:31;13.00;99.90
5697;DHT22;2873;50.966;7.210;2023-10-31T00:02:57;13.00;99.90
5697;DHT22;2873;50.966;7.210;2023-10-31T00:05:22;13.00;99.90
5697;DHT22;2873;50.966;7.210;2023-10-31T00:07:48;13.00;99.90
5697;DHT22;2873;50.966;7.210;2023-10-31T00:10:13;13.00;99.90
5697;DHT22;2873;50.966;7.210;2023-10-31T00:12:39;13.00;99.90
5697;DHT22;2873;50.966;7.210;2023-10-31T00:15:05;13.00;99.90
5697;DHT22;2873;50.966;7.210;2023-10-31T00:17:30;13.00;99.90
5697;DHT22;2873;50.966;7.210;2023-10-31T00:19:56;13.00;99.90
5697;DHT22;2873;50.966;7.210;2023-10-31T00:22:21;12.90;99.90
5697;DHT22;2873;50.966;7.210;2023-10-31T00:24:47;12.90;99.90
5697;DHT22;2873;50.966;7.210;2023-10-31T00:27:12;12.90;99.90
5697;DHT22;2873;50.966;7.210;2023-10-31T00:29:39;12.90;99.90
5697;DHT22;2873;50.966;7.210;2023-10-31T00:32:05;12.80;99.90
5697;DHT22;2873;50.966;7.210;2023-10-31T00:34:31;12.80;99.90
5697;DHT22;2873;50.966;7.210;2023-10-31T00:36:56;12.80;99.90
5697;DHT22;2873;50.966;7.210;2023-10-31T00:39:22;12.80;99.90
5697;DHT22;2873;50.966;7.210;2023-10-31T00:41:47;12.80;99.90
5697;DHT22;2873;50.966;7.210;2023-10-31T00:44:13;12.80;99.90
5697;DHT22;2873;50.966;7.210;2023-10-31T00:46:38;12.80;99.90
5697;DHT22;2873;50.966;7.210;2023-10-31T00:49:04;12.80;99.90
5697;DHT22;2873;50.966;7.210;2023-10-31T00:51:29;12.80;99.90
5697;DHT22;2873;50.966;7.210;2023-10-31T00:53:55;12.80;99.90
5697;DHT22;2873;50.966;7.210;2023-10-31T00:56:20;12.80;99.90
5697;DHT22;2873;50.966;7.210;2023-10-31T00:58:46;12.80;99.90
5697;DHT22;2873;50.966;7.210;2023-10-31T01:01:11;12.80;99.90
5697;DHT22;2873;50.966;7.210;2023-10-31T01:03:37;12.90;99.90
5697;DHT22;2873;50.966;7.210;2023-10-31T01:06:02;12.90;99.90
5697;DHT22;2873;50.966;7.210;2023-10-31T01:08:28;12.80;99.90
5697;DHT22;2873;50.966;7.210;2023-10-31T01:10:55;12.80;99.90
5697;DHT22;2873;50.966;7.210;2023-10-31T01:13:20;12.80;99.90
5697;DHT22;2873;50.966;7.210;2023-10-31T01:15:46;12.80;99.90
5697;DHT22;2873;50.966;7.210;2023-10-31T01:18:11;12.80;99.90
5697;DHT22;2873;50.966;7.210;2023-10-31T01:20:37;12.80;99.90
5697;DHT22;2873;50.966;7.210;2023-10-31T01:23:03;12.70;99.90
5697;DHT22;2873;50.966;7.210;2023-10-31T01:25:29;12.70;99.90
5697;DHT22;2873;50.966;7.210;2023-10-31T01:27:54;12.60;99.90
5697;DHT22;2873;50.966;7.210;2023-10-31T01:30:20;12.60;99.90
5697;DHT22;2873;50.966;7.210;2023-10-31T01:32:45;12.60;99.90
5697;DHT22;2873;50.966;7.210;2023-10-31T01:35:10;12.60;99.90
5697;DHT22;2873;50.966;7.210;2023-10-31T01:37:36;12.50;99.90
5697;DHT22;2873;50.966;7.210;2023-10-31T01:40:02;12.50;99.90
5697;DHT22;2873;50.966;7.210;2023-10-31T01:42:29;12.50;99.90
5697;DHT22;2873;50.966;7.210;2023-10-31T01:44:54;12.30;99.90
5697;DHT22;2873;50.966;7.210;2023-10-31T01:47:20;12.40;99.90
5697;DHT22;2873;50.966;7.210;2023-10-31T01:49:45;12.40;99.90
5697;DHT22;2873;50.966;7.210;2023-10-31T01:52:11;12.40;99.90
5697;DHT22;2873;50.966;7.210;2023-10-31T01:54:37;12.40;99.90
5697;DHT22;2873;50.966;7.210;2023-10-31T01:57:02;12.40;99.90
5697;DHT22;2873;50.966;7.210;2023-10-31T01:59:28;12.40;99.90
5697;DHT22;2873;50.966;7.210;2023-10-31T02:01:54;12.40;99.90
5697;DHT22;2873;50.966;7.210;2023-10-31T02:04:20;12.40;99.90
5697;DHT22;2873;50.966;7.210;2023-10-31T02:06:45;12.40;99.90
5697;DHT22;2873;50.966;7.210;2023-10-31T02:09:10;12.30;99.90
5697;DHT22;2873;50.966;7.210;2023-10-31T02:11:36;12.40;99.90
5697;DHT22;2873;50.966;7.210;2023-10-31T02:14:02;12.30;99.90
5697;DHT22;2873;50.966;7.210;2023-10-31T02:16:27;12.40;99.90
5697;DHT22;2873;50.966;7.210;2023-10-31T02:18:53;12.40;99.90
5697;DHT22;2873;50.966;7.210;2023-10-31T02:21:19;12.40;99.90
5697;DHT22;2873;50.966;7.210;2023-10-31T02:23:57;12.40;99.90
5697;DHT22;2873;50.966;7.210;2023-10-31T02:26:27;12.40;99.90
5697;DHT22;2873;50.966;7.210;2023-10-31T02:28:53;12.40;99.90
5697;DHT22;2873;50.966;7.210;2023-10-31T02:31:18;12.40;99.90
5697;DHT22;2873;50.966;7.210;2023-10-31T02:33:44;12.40;99.90
5697;DHT22;2873;50.966;7.210;2023-10-31T02:36:09;12.40;99.90
5697;DHT22;2873;50.966;7.210;2023-10-31T02:38:34;12.30;99.90
5697;DHT22;2873;50.966;7.210;2023-10-31T02:41:00;12.30;99.90
5697;DHT22;2873;50.966;7.210;2023-10-31T02:43:25;12.30;99.90
5697;DHT22;2873;50.966;7.210;2023-10-31T02:45:51;12.30;99.90
5697;DHT22;2873;50.966;7.210;2023-10-31T02:48:16;12.30;99.90
5697;DHT22;2873;50.966;7.210;2023-10-31T02:50:42;12.30;99.90
5697;DHT22;2873;50.966;7.210;2023-10-31T02:53:07;12.30;99.90
5697;DHT22;2873;50.966;7.210;2023-10-31T02:55:33;12.30;99.90
5697;DHT22;2873;50.966;7.210;2023-10-31T02:57:58;12.30;99.90
5697;DHT22;2873;50.966;7.210;2023-10-31T03:00:24;12.30;99.90
5697;DHT22;2873;50.966;7.210;2023-10-31T03:02:50;12.30;99.90
5697;DHT22;2873;50.966;7.210;2023-10-31T03:05:16;12.30;99.90
5697;DHT22;2873;50.966;7.210;2023-10-31T03:07:42;12.30;99.90
5697;DHT22;2873;50.966;7.210;2023-10-31T03:10:07;12.30;99.90
5697;DHT22;2873;50.966;7.210;2023-10-31T03:12:33;12.30;99.90
5697;DHT22;2873;50.966;7.210;2023-10-31T03:14:58;12.30;99.90
5697;DHT22;2873;50.966;7.210;2023-10-31T03:17:23;12.30;99.90
5697;DHT22;2873;50.966;7.210;2023-10-31T03:19:50;12.20;99.90
5697;DHT22;2873;50.966;7.210;2023-10-31T03:22:16;12.20;99.90
5697;DHT22;2873;50.966;7.210;2023-10-31T03:24:41;12.30;99.90
5697;DHT22;2873;50.966;7.210;2023-10-31T03:27:07;12.30;99.90
5697;DHT22;2873;50.966;7.210;2023-10-31T03:29:32;12.30;99.90
5697;DHT22;2873;50.966;7.210;2023-10-31T03:31:58;12.30;99.90
5697;DHT22;2873;50.966;7.210;2023-10-31T03:34:23;12.30;99.90
5697;DHT22;2873;50.966;7.210;2023-10-31T03:36:48;12.30;99.90
5697;DHT22;2873;50.966;7.210;2023-10-31T03:39:14;12.30;99.90
5697;DHT22;2873;50.966;7.210;2023-10-31T03:41:39;12.30;99.90
5697;DHT22;2873;50.966;7.210;2023-10-31T03:44:05;12.30;99.90
5697;DHT22;2873;50.966;7.210;2023-10-31T03:46:30;12.30;99.90
5697;DHT22;2873;50.966;7.210;2023-10-31T03:48:56;12.30;99.90
5697;DHT22;2873;50.966;7.210;2023-10-31T03:51:21;12.30;99.90
5697;DHT22;2873;50.966;7.210;2023-10-31T03:53:47;12.30;99.90
5697;DHT22;2873;50.966;7.210;2023-10-31T03:56:12;12.20;99.90
5697;DHT22;2873;50.966;7.210;2023-10-31T03:58:38;12.30;99.90
5697;DHT22;2873;50.966;7.210;2023-10-31T04:01:04;12.20;99.90
5697;DHT22;2873;50.966;7.210;2023-10-31T04:03:30;12.10;99.90
5697;DHT22;2873;50.966;7.210;2023-10-31T04:05:55;12.20;99.90
5697;DHT22;2873;50.966;7.210;2023-10-31T04:08:21;12.10;99.90
5697;DHT22;2873;50.966;7.210;2023-10-31T04:10:46;12.10;99.90
5697;DHT22;2873;50.966;7.210;2023-10-31T04:13:12;12.00;99.90
5697;DHT22;2873;50.966;7.210;2023-10-31T04:15:37;12.00;99.90
5697;DHT22;2873;50.966;7.210;2023-10-31T04:18:03;12.00;99.90
5697;DHT22;2873;50.966;7.210;2023-10-31T04:20:29;12.10;99.90
5697;DHT22;2873;50.966;7.210;2023-10-31T04:22:54;12.10;99.90
5697;DHT22;2873;50.966;7.210;2023-10-31T04:25:19;12.10;99.90
5697;DHT22;2873;50.966;7.210;2023-10-31T04:27:45;12.20;99.90
5697;DHT22;2873;50.966;7.210;2023-10-31T04:30:11;12.10;99.90
5697;DHT22;2873;50.966;7.210;2023-10-31T04:32:36;12.20;99.90
5697;DHT22;2873;50.966;7.210;2023-10-31T04:35:02;12.10;99.90
5697;DHT22;2873;50.966;7.210;2023-10-31T04:37:27;12.10;99.90
5697;DHT22;2873;50.966;7.210;2023-10-31T04:39:53;12.20;99.90
5697;DHT22;2873;50.966;7.210;2023-10-31T04:42:18;12.20;99.90
5697;DHT22;2873;50.966;7.210;2023-10-31T04:44:45;12.20;99.90
5697;DHT22;2873;50.966;7.210;2023-10-31T04:47:11;12.20;99.90
5697;DHT22;2873;50.966;7.210;2023-10-31T04:49:36;12.20;99.90
5697;DHT22;2873;50.966;7.210;2023-10-31T04:52:02;12.30;99.90
5697;DHT22;2873;50.966;7.210;2023-10-31T04:54:27;12.30;99.90
5697;DHT22;2873;50.966;7.210;2023-10-31T04:56:53;12.30;99.90
5697;DHT22;2873;50.966;7.210;2023-10-31T04:59:18;12.20;99.90
5697;DHT22;2873;50.966;7.210;2023-10-31T05:01:50;12.10;99.90
5697;DHT22;2873;50.966;7.210;2023-10-31T05:04:20;12.10;99.90
5697;DHT22;2873;50.966;7.210;2023-10-31T05:06:45;12.10;99.90
5697;DHT22;2873;50.966;7.210;2023-10-31T05:09:11;12.10;99.90
5697;DHT22;2873;50.966;7.210;2023-10-31T05:11:37;12.00;99.90
5697;DHT22;2873;50.966;7.210;2023-10-31T05:14:02;12.10;99.90
5697;DHT22;2873;50.966;7.210;2023-10-31T05:16:27;12.00;99.90
5697;DHT22;2873;50.966;7.210;2023-10-31T05:18:53;12.00;99.90
5697;DHT22;2873;50.966;7.210;2023-10-31T05:21:19;12.00;99.90
5697;DHT22;2873;50.966;7.210;2023-10-31T05:23:44;12.00;99.90
5697;DHT22;2873;50.966;7.210;2023-10-31T05:26:10;12.00;99.90
5697;DHT22;2873;50.966;7.210;2023-10-31T05:28:35;12.00;99.90
5697;DHT22;2873;50.966;7.210;2023-10-31T05:31:01;12.00;99.90
5697;DHT22;2873;50.966;7.210;2023-10-31T05:33:26;11.90;99.90
5697;DHT22;2873;50.966;7.210;2023-10-31T05:35:51;11.90;99.90
5697;DHT22;2873;50.966;7.210;2023-10-31T05:38:17;11.90;99.90
5697;DHT22;2873;50.966;7.210;2023-10-31T05:40:42;12.00;99.90
5697;DHT22;2873;50.966;7.210;2023-10-31T05:43:08;12.00;99.90
5697;DHT22;2873;50.966;7.210;2023-10-31T05:45:33;11.90;99.90
5697;DHT22;2873;50.966;7.210;2023-10-31T05:47:59;11.90;99.90
5697;DHT22;2873;50.966;7.210;2023-10-31T05:50:24;11.90;99.90
5697;DHT22;2873;50.966;7.210;2023-10-31T05:52:50;11.90;99.90
5697;DHT22;2873;50.966;7.210;2023-10-31T05:55:15;11.90;99.90
5697;DHT22;2873;50.966;7.210;2023-10-31T05:57:41;11.90;99.90
5697;DHT22;2873;50.966;7.210;2023-10-31T06:00:07;11.90;99.90
5697;DHT22;2873;50.966;7.210;2023-10-31T06:02:33;11.90;99.90
5697;DHT22;2873;50.966;7.210;2023-10-31T06:04:58;11.80;99.90
5697;DHT22;2873;50.966;7.210;2023-10-31T06:07:24;11.80;99.90
5697;DHT22;2873;50.966;7.210;2023-10-31T06:09:49;11.90;99.90
5697;DHT22;2873;50.966;7.210;2023-10-31T06:12:15;11.80;99.90
5697;DHT22;2873;50.966;7.210;2023-10-31T06:14:41;11.80;99.90
5697;DHT22;2873;50.966;7.210;2023-10-31T06:17:06;11.90;99.90
5697;DHT22;2873;50.966;7.210;2023-10-31T06:19:35;11.90;99.90
5697;DHT22;2873;50.966;7.210;2023-10-31T06:22:01;11.90;99.90
5697;DHT22;2873;50.966;7.210;2023-10-31T06:24:27;11.90;99.90
5697;DHT22;2873;50.966;7.210;2023-10-31T06:26:52;11.90;99.90
5697;DHT22;2873;50.966;7.210;2023-10-31T06:29:17;11.90;99.90
5697;DHT22;2873;50.966;7.210;2023-10-31T06:31:43;11.90;99.90
5697;DHT22;2873;50.966;7.210;2023-10-31T06:34:09;11.90;99.90
5697;DHT22;2873;50.966;7.210;2023-10-31T06:36:34;11.90;99.90
5697;DHT22;2873;50.966;7.210;2023-10-31T06:39:00;11.90;99.90
5697;DHT22;2873;50.966;7.210;2023-10-31T06:41:25;11.80;99.90
5697;DHT22;2873;50.966;7.210;2023-10-31T06:43:51;11.80;99.90
5697;DHT22;2873;50.966;7.210;2023-10-31T06:46:17;11.80;99.90
5697;DHT22;2873;50.966;7.210;2023-10-31T06:48:42;11.90;99.90
5697;DHT22;2873;50.966;7.210;2023-10-31T06:51:08;11.80;99.90
5697;DHT22;2873;50.966;7.210;2023-10-31T06:53:33;11.90;99.90
5697;DHT22;2873;50.966;7.210;2023-10-31T06:55:58;11.90;99.90
5697;DHT22;2873;50.966;7.210;2023-10-31T06:58:24;11.90;99.90
5697;DHT22;2873;50.966;7.210;2023-10-31T07:00:49;12.00;99.90
5697;DHT22;2873;50.966;7.210;2023-10-31T07:03:15;11.90;99.90
5697;DHT22;2873;50.966;7.210;2023-10-31T07:05:41;11.90;99.90
5697;DHT22;2873;50.966;7.210;2023-10-31T07:08:07;11.90;99.90
5697;DHT22;2873;50.966;7.210;2023-10-31T07:10:32;11.90;99.90
5697;DHT22;2873;50.966;7.210;2023-10-31T07:12:58;11.90;99.90
5697;DHT22;2873;50.966;7.210;2023-10-31T07:15:24;12.00;99.90
5697;DHT22;2873;50.966;7.210;2023-10-31T07:17:50;11.90;99.90
5697;DHT22;2873;50.966;7.210;2023-10-31T07:20:15;12.00;99.90
5697;DHT22;2873;50.966;7.210;2023-10-31T07:22:41;12.20;99.90
5697;DHT22;2873;50.966;7.210;2023-10-31T07:25:06;12.30;99.90
5697;DHT22;2873;50.966;7.210;2023-10-31T07:27:32;12.40;99.90
5697;DHT22;2873;50.966;7.210;2023-10-31T07:29:58;12.40;99.90
5697;DHT22;2873;50.966;7.210;2023-10-31T07:32:23;12.50;99.90
5697;DHT22;2873;50.966;7.210;2023-10-31T07:34:49;12.50;99.90
5697;DHT22;2873;50.966;7.210;2023-10-31T07:37:14;12.50;99.90
5697;DHT22;2873;50.966;7.210;2023-10-31T07:39:40;12.50;99.90
5697;DHT22;2873;50.966;7.210;2023-10-31T07:42:06;12.40;99.90
5697;DHT22;2873;50.966;7.210;2023-10-31T07:44:31;12.40;99.90
5697;DHT22;2873;50.966;7.210;2023-10-31T07:46:56;12.30;99.90
5697;DHT22;2873;50.966;7.210;2023-10-31T07:49:22;12.40;99.90
5697;DHT22;2873;50.966;7.210;2023-10-31T07:51:48;12.30;99.90
5697;DHT22;2873;50.966;7.210;2023-10-31T07:54:14;12.30;99.90
5697;DHT22;2873;50.966;7.210;2023-10-31T07:56:39;12.30;99.90
5697;DHT22;2873;50.966;7.210;2023-10-31T07:59:05;12.30;99.90
5697;DHT22;2873;50.966;7.210;2023-10-31T08:01:33;12.30;99.90
5697;DHT22;2873;50.966;7.210;2023-10-31T08:03:58;12.20;99.90
5697;DHT22;2873;50.966;7.210;2023-10-31T08:06:24;12.20;99.90
5697;DHT22;2873;50.966;7.210;2023-10-31T08:08:49;12.10;99.90
5697;DHT22;2873;50.966;7.210;2023-10-31T08:11:15;12.20;99.90
5697;DHT22;2873;50.966;7.210;2023-10-31T08:13:40;12.20;99.90
5697;DHT22;2873;50.966;7.210;2023-10-31T08:16:06;12.30;99.90
5697;DHT22;2873;50.966;7.210;2023-10-31T08:18:32;12.20;99.90
5697;DHT22;2873;50.966;7.210;2023-10-31T08:20:57;12.30;99.90
5697;DHT22;2873;50.966;7.210;2023-10-31T08:23:23;12.20;99.90
5697;DHT22;2873;50.966;7.210;2023-10-31T08:25:48;12.20;99.90
5697;DHT22;2873;50.966;7.210;2023-10-31T08:28:15;12.20;99.90
5697;DHT22;2873;50.966;7.210;2023-10-31T08:30:41;12.10;99.90
5697;DHT22;2873;50.966;7.210;2023-10-31T08:33:06;12.10;99.90
5697;DHT22;2873;50.966;7.210;2023-10-31T08:35:32;12.20;99.90
5697;DHT22;2873;50.966;7.210;2023-10-31T08:37:58;12.10;99.90
5697;DHT22;2873;50.966;7.210;2023-10-31T08:40:23;12.20;99.90
5697;DHT22;2873;50.966;7.210;2023-10-31T08:42:49;12.30;99.90
5697;DHT22;2873;50.966;7.210;2023-10-31T08:45:14;12.30;99.90
5697;DHT22;2873;50.966;7.210;2023-10-31T08:47:40;12.20;99.90
5697;DHT22;2873;50.966;7.210;2023-10-31T08:50:06;12.30;99.90
5697;DHT22;2873;50.966;7.210;2023-10-31T08:52:33;12.30;99.90
5697;DHT22;2873;50.966;7.210;2023-10-31T08:54:59;12.30;99.90
5697;DHT22;2873;50.966;7.210;2023-10-31T08:57:24;12.30;99.90
5697;DHT22;2873;50.966;7.210;2023-10-31T08:59:50;12.30;99.90
5697;DHT22;2873;50.966;7.210;2023-10-31T09:02:15;12.30;99.90
5697;DHT22;2873;50.966;7.210;2023-10-31T09:04:41;12.30;99.90
5697;DHT22;2873;50.966;7.210;2023-10-31T09:07:07;12.30;99.90
5697;DHT22;2873;50.966;7.210;2023-10-31T09:09:32;12.30;99.90
5697;DHT22;2873;50.966;7.210;2023-10-31T09:11:58;12.50;99.90
5697;DHT22;2873;50.966;7.210;2023-10-31T09:14:23;12.40;99.90
5697;DHT22;2873;50.966;7.210;2023-10-31T09:16:49;12.40;99.90
5697;DHT22;2873;50.966;7.210;2023-10-31T09:19:14;12.40;99.90
5697;DHT22;2873;50.966;7.210;2023-10-31T09:21:40;12.40;99.90
5697;DHT22;2873;50.966;7.210;2023-10-31T09:24:06;12.40;99.90
5697;DHT22;2873;50.966;7.210;2023-10-31T09:26:32;12.40;99.90
5697;DHT22;2873;50.966;7.210;2023-10-31T09:28:58;12.30;99.90
5697;DHT22;2873;50.966;7.210;2023-10-31T09:31:24;12.40;99.90
5697;DHT22;2873;50.966;7.210;2023-10-31T09:33:49;12.50;99.90
5697;DHT22;2873;50.966;7.210;2023-10-31T09:36:15;12.50;99.90
5697;DHT22;2873;50.966;7.210;2023-10-31T09:38:40;12.50;99.90
5697;DHT22;2873;50.966;7.210;2023-10-31T09:41:06;12.50;99.90
5697;DHT22;2873;50.966;7.210;2023-10-31T09:43:31;12.50;99.90
5697;DHT22;2873;50.966;7.210;2023-10-31T09:46:00;12.50;99.90
5697;DHT22;2873;50.966;7.210;2023-10-31T09:48:26;12.50;99.90
5697;DHT22;2873;50.966;7.210;2023-10-31T09:50:52;12.60;99.90
5697;DHT22;2873;50.966;7.210;2023-10-31T09:53:18;12.50;99.90
5697;DHT22;2873;50.966;7.210;2023-10-31T09:55:44;12.50;99.90
5697;DHT22;2873;50.966;7.210;2023-10-31T09:58:10;12.50;99.90
5697;DHT22;2873;50.966;7.210;2023-10-31T10:00:36;12.50;99.90
5697;DHT22;2873;50.966;7.210;2023-10-31T10:03:09;12.50;99.90
5697;DHT22;2873;50.966;7.210;2023-10-31T10:05:35;12.60;99.90
5697;DHT22;2873;50.966;7.210;2023-10-31T10:08:00;12.60;99.90
5697;DHT22;2873;50.966;7.210;2023-10-31T10:10:26;12.70;99.90
5697;DHT22;2873;50.966;7.210;2023-10-31T10:12:52;12.70;99.90
5697;DHT22;2873;50.966;7.210;2023-10-31T10:15:18;12.70;99.90
5697;DHT22;2873;50.966;7.210;2023-10-31T10:17:50;12.70;99.90
5697;DHT22;2873;50.966;7.210;2023-10-31T10:20:16;12.60;99.90
5697;DHT22;2873;50.966;7.210;2023-10-31T10:22:43;12.70;99.90
5697;DHT22;2873;50.966;7.210;2023-10-31T10:25:09;12.70;99.90
5697;DHT22;2873;50.966;7.210;2023-10-31T10:27:37;12.80;99.90
5697;DHT22;2873;50.966;7.210;2023-10-31T10:30:03;12.70;99.90
5697;DHT22;2873;50.966;7.210;2023-10-31T10:32:29;12.60;99.90
5697;DHT22;2873;50.966;7.210;2023-10-31T10:34:54;12.70;99.90
5697;DHT22;2873;50.966;7.210;2023-10-31T10:37:20;12.70;99.90
5697;DHT22;2873;50.966;7.210;2023-10-31T10:39:47;12.70;99.90
5697;DHT22;2873;50.966;7.210;2023-10-31T10:42:14;12.70;99.90
5697;DHT22;2873;50.966;7.210;2023-10-31T10:44:41;12.70;99.90
5697;DHT22;2873;50.966;7.210;2023-10-31T10:47:08;12.80;99.90
5697;DHT22;2873;50.966;7.210;2023-10-31T10:49:36;12.80;99.90
5697;DHT22;2873;50.966;7.210;2023-10-31T10:54:35;12.90;99.90
5697;DHT22;2873;50.966;7.210;2023-10-31T10:57:03;12.90;99.90
5697;DHT22;2873;50.966;7.210;2023-10-31T10:59:52;12.90;99.90
5697;DHT22;2873;50.966;7.210;2023-10-31T11:02:18;13.00;99.90
5697;DHT22;2873;50.966;7.210;2023-10-31T11:04:44;12.90;99.90
5697;DHT22;2873;50.966;7.210;2023-10-31T11:07:10;13.00;99.90
5697;DHT22;2873;50.966;7.210;2023-10-31T11:09:35;13.00;99.90
5697;DHT22;2873;50.966;7.210;2023-10-31T11:12:01;13.00;99.90
5697;DHT22;2873;50.966;7.210;2023-10-31T11:14:27;13.10;99.90
5697;DHT22;2873;50.966;7.210;2023-10-31T11:16:55;13.10;99.90
5697;DHT22;2873;50.966;7.210;2023-10-31T11:19:21;13.10;99.90
5697;DHT22;2873;50.966;7.210;2023-10-31T11:21:54;13.20;99.90
5697;DHT22;2873;50.966;7.210;2023-10-31T11:24:23;13.20;99.90
5697;DHT22;2873;50.966;7.210;2023-10-31T11:26:52;13.20;99.90
5697;DHT22;2873;50.966;7.210;2023-10-31T11:29:19;13.20;99.90
5697;DHT22;2873;50.966;7.210;2023-10-31T11:31:44;13.10;99.90
5697;DHT22;2873;50.966;7.210;2023-10-31T11:34:10;13.20;99.90
5697;DHT22;2873;50.966;7.210;2023-10-31T11:36:36;13.20;99.90
5697;DHT22;2873;50.966;7.210;2023-10-31T11:39:11;13.20;99.90
5697;DHT22;2873;50.966;7.210;2023-10-31T11:41:39;13.20;99.90
5697;DHT22;2873;50.966;7.210;2023-10-31T11:44:05;13.10;99.90
5697;DHT22;2873;50.966;7.210;2023-10-31T11:46:31;13.10;99.90
5697;DHT22;2873;50.966;7.210;2023-10-31T11:48:57;13.20;99.90
5697;DHT22;2873;50.966;7.210;2023-10-31T11:51:22;13.20;99.90
5697;DHT22;2873;50.966;7.210;2023-10-31T11:53:48;13.30;99.90
5697;DHT22;2873;50.966;7.210;2023-10-31T11:56:17;13.30;99.90
5697;DHT22;2873;50.966;7.210;2023-10-31T11:58:43;13.30;99.90
5697;DHT22;2873;50.966;7.210;2023-10-31T12:01:09;13.30;99.90
5697;DHT22;2873;50.966;7.210;2023-10-31T12:03:38;13.30;99.90
5697;DHT22;2873;50.966;7.210;2023-10-31T12:06:07;13.30;99.90
5697;DHT22;2873;50.966;7.210;2023-10-31T12:08:35;13.40;99.90
5697;DHT22;2873;50.966;7.210;2023-10-31T12:14:01;13.50;99.90
5697;DHT22;2873;50.966;7.210;2023-10-31T12:16:29;13.60;99.90
5697;DHT22;2873;50.966;7.210;2023-10-31T12:19:02;13.60;99.90
5697;DHT22;2873;50.966;7.210;2023-10-31T12:24:06;13.60;99.90
5697;DHT22;2873;50.966;7.210;2023-10-31T12:26:35;13.60;99.90
5697;DHT22;2873;50.966;7.210;2023-10-31T12:31:39;13.70;99.90
5697;DHT22;2873;50.966;7.210;2023-10-31T12:34:05;13.80;99.90
5697;DHT22;2873;50.966;7.210;2023-10-31T12:36:34;13.80;99.90
5697;DHT22;2873;50.966;7.210;2023-10-31T12:39:00;13.80;99.90
5697;DHT22;2873;50.966;7.210;2023-10-31T12:41:26;13.90;99.90
5697;DHT22;2873;50.966;7.210;2023-10-31T12:43:52;13.90;99.90
5697;DHT22;2873;50.966;7.210;2023-10-31T12:46:25;13.90;99.90
5697;DHT22;2873;50.966;7.210;2023-10-31T12:48:51;14.00;99.90
5697;DHT22;2873;50.966;7.210;2023-10-31T12:51:16;14.00;99.90
5697;DHT22;2873;50.966;7.210;2023-10-31T12:53:42;14.00;99.90
5697;DHT22;2873;50.966;7.210;2023-10-31T12:56:07;14.10;99.90
5697;DHT22;2873;50.966;7.210;2023-10-31T12:58:33;14.10;99.90
5697;DHT22;2873;50.966;7.210;2023-10-31T13:00:59;14.10;99.90
5697;DHT22;2873;50.966;7.210;2023-10-31T13:03:25;14.20;99.90
5697;DHT22;2873;50.966;7.210;2023-10-31T13:05:50;14.40;99.90
5697;DHT22;2873;50.966;7.210;2023-10-31T13:08:16;14.60;99.90
5697;DHT22;2873;50.966;7.210;2023-10-31T13:10:42;14.60;99.90
5697;DHT22;2873;50.966;7.210;2023-10-31T13:13:08;14.60;99.90
5697;DHT22;2873;50.966;7.210;2023-10-31T13:15:34;14.50;99.90
5697;DHT22;2873;50.966;7.210;2023-10-31T13:18:02;14.50;99.90
5697;DHT22;2873;50.966;7.210;2023-10-31T13:20:27;14.60;99.90
5697;DHT22;2873;50.966;7.210;2023-10-31T13:22:53;14.60;99.90
5697;DHT22;2873;50.966;7.210;2023-10-31T13:25:18;14.70;99.90
5697;DHT22;2873;50.966;7.210;2023-10-31T13:27:44;14.70;99.90
5697;DHT22;2873;50.966;7.210;2023-10-31T13:30:10;14.70;99.90
5697;DHT22;2873;50.966;7.210;2023-10-31T13:32:36;14.70;99.90
5697;DHT22;2873;50.966;7.210;2023-10-31T13:35:02;14.80;99.90
5697;DHT22;2873;50.966;7.210;2023-10-31T13:37:28;15.00;99.90
5697;DHT22;2873;50.966;7.210;2023-10-31T13:39:54;15.20;99.90
5697;DHT22;2873;50.966;7.210;2023-10-31T13:42:19;15.40;99.90
5697;DHT22;2873;50.966;7.210;2023-10-31T13:44:45;15.50;99.90
5697;DHT22;2873;50.966;7.210;2023-10-31T13:47:10;15.60;99.90
5697;DHT22;2873;50.966;7.210;2023-10-31T13:49:36;15.60;99.90
5697;DHT22;2873;50.966;7.210;2023-10-31T13:52:05;15.80;99.90
5697;DHT22;2873;50.966;7.210;2023-10-31T13:54:32;15.60;99.90
5697;DHT22;2873;50.966;7.210;2023-10-31T13:56:57;15.70;99.90
5697;DHT22;2873;50.966;7.210;2023-10-31T13:59:23;15.90;99.90
5697;DHT22;2873;50.966;7.210;2023-10-31T14:01:49;16.00;99.90
5697;DHT22;2873;50.966;7.210;2023-10-31T14:04:14;16.00;99.90
5697;DHT22;2873;50.966;7.210;2023-10-31T14:06:41;16.00;99.90
5697;DHT22;2873;50.966;7.210;2023-10-31T14:09:07;15.90;99.90
5697;DHT22;2873;50.966;7.210;2023-10-31T14:11:33;15.80;99.90
5697;DHT22;2873;50.966;7.210;2023-10-31T14:13:59;15.80;99.90
5697;DHT22;2873;50.966;7.210;2023-10-31T14:16:32;15.80;99.90
5697;DHT22;2873;50.966;7.210;2023-10-31T14:18:57;15.70;99.90
5697;DHT22;2873;50.966;7.210;2023-10-31T14:21:23;15.70;99.90
5697;DHT22;2873;50.966;7.210;2023-10-31T14:23:48;15.70;99.90
5697;DHT22;2873;50.966;7.210;2023-10-31T14:26:22;15.60;99.90
5697;DHT22;2873;50.966;7.210;2023-10-31T14:28:48;15.70;99.90
5697;DHT22;2873;50.966;7.210;2023-10-31T14:31:13;15.80;99.90
5697;DHT22;2873;50.966;7.210;2023-10-31T14:33:39;15.80;99.90
5697;DHT22;2873;50.966;7.210;2023-10-31T14:36:05;15.80;99.90
5697;DHT22;2873;50.966;7.210;2023-10-31T14:38:31;15.80;99.90
5697;DHT22;2873;50.966;7.210;2023-10-31T14:40:57;15.80;99.90
5697;DHT22;2873;50.966;7.210;2023-10-31T14:43:22;15.90;99.90
5697;DHT22;2873;50.966;7.210;2023-10-31T14:45:48;15.90;99.90
5697;DHT22;2873;50.966;7.210;2023-10-31T14:48:13;15.90;99.90
5697;DHT22;2873;50.966;7.210;2023-10-31T14:50:39;15.90;99.90
5697;DHT22;2873;50.966;7.210;2023-10-31T14:53:04;15.80;99.90
5697;DHT22;2873;50.966;7.210;2023-10-31T14:55:30;15.70;99.90
5697;DHT22;2873;50.966;7.210;2023-10-31T14:57:56;15.80;99.90
5697;DHT22;2873;50.966;7.210;2023-10-31T15:00:21;15.70;99.90
5697;DHT22;2873;50.966;7.210;2023-10-31T15:02:46;15.70;99.90
5697;DHT22;2873;50.966;7.210;2023-10-31T15:05:12;15.60;99.90
5697;DHT22;2873;50.966;7.210;2023-10-31T15:07:37;15.60;99.90
5697;DHT22;2873;50.966;7.210;2023-10-31T15:10:03;15.60;99.90
5697;DHT22;2873;50.966;7.210;2023-10-31T15:12:29;15.60;99.90
5697;DHT22;2873;50.966;7.210;2023-10-31T15:14:54;15.50;99.90
5697;DHT22;2873;50.966;7.210;2023-10-31T15:17:20;15.40;99.90
5697;DHT22;2873;50.966;7.210;2023-10-31T15:19:45;15.40;99.90
5697;DHT22;2873;50.966;7.210;2023-10-31T15:22:11;15.30;99.90
5697;DHT22;2873;50.966;7.210;2023-10-31T15:24:36;15.30;99.90
5697;DHT22;2873;50.966;7.210;2023-10-31T15:27:02;15.20;99.90
5697;DHT22;2873;50.966;7.210;2023-10-31T15:29:28;15.20;99.90
5697;DHT22;2873;50.966;7.210;2023-10-31T15:31:53;15.20;99.90
5697;DHT22;2873;50.966;7.210;2023-10-31T15:34:20;15.10;99.90
5697;DHT22;2873;50.966;7.210;2023-10-31T15:36:46;15.10;99.90
5697;DHT22;2873;50.966;7.210;2023-10-31T15:39:11;15.00;99.90
5697;DHT22;2873;50.966;7.210;2023-10-31T15:41:37;14.80;99.90
5697;DHT22;2873;50.966;7.210;2023-10-31T15:44:03;14.80;99.90
5697;DHT22;2873;50.966;7.210;2023-10-31T15:46:29;14.80;99.90
5697;DHT22;2873;50.966;7.210;2023-10-31T15:48:55;14.70;99.90
5697;DHT22;2873;50.966;7.210;2023-10-31T15:51:20;14.70;99.90
5697;DHT22;2873;50.966;7.210;2023-10-31T15:53:46;14.70;99.90
5697;DHT22;2873;50.966;7.210;2023-10-31T15:56:12;14.80;99.90
5697;DHT22;2873;50.966;7.210;2023-10-31T15:58:37;14.70;99.90
5697;DHT22;2873;50.966;7.210;2023-10-31T16:01:03;14.70;99.90
5697;DHT22;2873;50.966;7.210;2023-10-31T16:03:29;14.70;99.90